This is the latest recevied weather packets stored in our database for station/object G7UKK-10. If no packets are shown the sender has not sent any weather packets the latest 10 day(s).
| Time | Temp. | Humidity | Pressure | Rain* | Wind** | Luminosity | Snow |
|---|---|---|---|---|---|---|---|
| 1777983916 | 11.11° C | 67% | 1016 hPa | 0 mm | - | - | - |
| 1777983016 | 11.11° C | 68% | 1016.1 hPa | 0 mm | - | - | - |
| 1777982116 | 10.56° C | 69% | 1016 hPa | 0 mm | - | - | - |
| 1777981216 | 11.11° C | 67% | 1016.3 hPa | 0 mm | - | - | - |
| 1777980316 | 11.11° C | 66% | 1016 hPa | 0 mm | - | - | - |
| 1777979416 | 11.11° C | 66% | 1016.2 hPa | 0 mm | - | - | - |
| 1777978516 | 10.56° C | 65% | 1016.3 hPa | 0 mm | - | - | - |
| 1777977616 | 10.56° C | 64% | 1016.3 hPa | 0 mm | - | - | - |
| 1777976716 | 11.11° C | 63% | 1016.2 hPa | 0 mm | - | - | - |
| 1777975816 | 10.56° C | 65% | 1016.1 hPa | 0 mm | - | - | - |
| 1777974916 | 10.56° C | 65% | 1016 hPa | 0 mm | - | - | - |
| 1777974016 | 10.56° C | 65% | 1016.3 hPa | 0 mm | - | - | - |
| 1777973116 | 10° C | 66% | 1016.2 hPa | 0 mm | - | - | - |
| 1777972216 | 10° C | 68% | 1016.3 hPa | 0 mm | - | - | - |
| 1777971316 | 10° C | 71% | 1016.4 hPa | 0 mm | - | - | - |
| 1777970416 | 10.56° C | 68% | 1016.4 hPa | 0 mm | - | - | - |
| 1777969516 | 10.56° C | 66% | 1016.2 hPa | 0 mm | - | - | - |
| 1777968616 | 10.56° C | 68% | 1016.4 hPa | 0 mm | - | - | - |
| 1777967716 | 10° C | 74% | 1016.2 hPa | 0 mm | - | - | - |
| 1777966816 | 8.89° C | 77% | 1016.3 hPa | 0 mm | - | - | - |
| 1777965916 | 8.89° C | 78% | 1016.3 hPa | 0 mm | - | - | - |
| 1777965016 | 8.33° C | 80% | 1016.1 hPa | 0 mm | - | - | - |
| 1777964116 | 7.78° C | 81% | 1016.6 hPa | 0 mm | - | - | - |
| 1777963216 | 7.78° C | 81% | 1016.5 hPa | 0 mm | - | - | - |
| 1777962316 | 7.22° C | 85% | 1016.4 hPa | 0 mm | - | - | - |
* Rain latest hour (hover to see other rain measurements)
** Current wind speed in m/s (hover to see current wind gust speed)